Kezdőlap
METAR-TAF:

METAR-TAF

Repülőterek :

Weno, Mikronézia

földrajzi szélesség: 07-28N, földrajzi hosszúság: 151-51E, magasság: 3 m

Jelenlegi meteorológiai megfigyelések

A jelentés 24 perccel ezelõtt készült, 12:50 UTC
Különbözõ irányokból fújó szél 3 kt
Hőmérséklet 28°C
Páratartalom 84%
Légköri nyomás 1009 hPa
Látótávolság: 24.1 km
Kevés felhő 1400 lábon
Szórványos felhőzet 12000 lábon
Szakadozott felhőzet 28000 lábon

METAR: PTKK 211250Z VRB03KT 15SM FEW014 SCT120 BKN280 28/25 A2979 RMK SLP091 T02830249

Idő: 23:14 (13:14 UTC)

Előrejelzés

A jelentés 1 órával és 51 perccel ezelõtt készült, 11:23 UTC
Az előrejelzés 21-én 12 óra UTC és 22-én 12 óra UTC között érvényes
Északkeleti szél 10 kt
Látótávolság: 10 km
Kevés felhő 1400 lábon

TAF: PTKK 211123Z 2112/2212 05010KT P6SM FEW014

Meteorológiai megfigyelések és előrejelzések több, mint 4000 repülőtéren (METAR és TAF jelentéseket).

A térképen piros és sárga pontok jelzik az elérhető meteorológiai állomásokat.

Mozgassa az egeret a pont fölött, hogy megjelenjen az állomás neve.

Azután kattintson az időjárási megfigyelések és előrejelzések megtekintéséhez.

A térkép megváltoztatása: kattintson a fekete keresztel jelölt zöld gombra ráközelítéshez, a vonallal jelölt zöld gombra távolításhoz, vagy a zöld nyilakra a szomszédos térképek eléréséhez.


METAR-TAF: